Time;durP1;ratioP1;P1;durP2;ratioP2;P2;SDS_P1;SDS_P2;PMS_P1;PMS_P2;Temp;Humidity;BMP_temperature;BMP_pressure;BME280_temperature;BME280_humidity;BME280_pressure;Samples;Min_cycle;Max_cycle;Signal;HPM_P1;HPM_P2
2022/12/29 00:01:34;;;;;;;;;;;102.60;2227.20;;;;;;5027434;28;20394;-81
2022/12/29 00:04:00;;;;;;;15.15;7.43;;;102.60;2227.20;;;;;;5052409;28;19929;-81
2022/12/29 00:06:26;;;;;;;;;;;102.50;2227.20;;;;;;5025407;28;20026;-82
2022/12/29 00:08:52;;;;;;;14.65;8.52;;;102.50;2227.20;;;;;;5016129;28;20358;-80
2022/12/29 00:11:19;;;;;;;;;;;102.50;2227.20;;;;;;5024758;28;20061;-83
2022/12/29 00:16:29;;;;;;;19.85;9.90;;;102.60;2227.20;;;;;;5025076;28;20525;-83
2022/12/29 00:18:55;;;;;;;24.02;10.60;;;102.50;2227.20;;;;;;5024799;28;20027;-82
2022/12/29 00:35:42;;;;;;;26.83;12.45;;;102.50;2227.20;;;;;;5021006;28;20080;-81
2022/12/29 00:46:23;;;;;;;27.75;12.93;;;102.50;2227.20;;;;;;5025295;28;20032;-82
2022/12/29 00:51:33;;;;;;;25.58;10.50;;;102.60;2227.20;;;;;;5022992;28;20859;-82
2022/12/29 00:53:58;;;;;;;;;;;102.50;2227.20;;;;;;5028996;28;20030;-83
2022/12/29 00:56:24;;;;;;;21.02;10.65;;;102.50;2227.20;;;;;;5028682;28;20357;-82
2022/12/29 00:58:50;;;;;;;;;;;102.50;2227.20;;;;;;5029756;28;20104;-82
2022/12/29 01:01:15;;;;;;;21.88;11.13;;;102.50;2227.20;;;;;;5030690;28;19913;-83
2022/12/29 01:03:41;;;;;;;;;;;102.50;2227.20;;;;;;5028737;28;20029;-83
2022/12/29 01:06:09;;;;;;;19.20;9.52;;;102.50;2227.20;;;;;;5067245;28;19938;-83
2022/12/29 01:08:35;;;;;;;20.95;10.80;;;102.50;2227.20;;;;;;5038251;28;20470;-82
2022/12/29 01:11:11;;;;;;;23.50;10.15;;;102.60;2227.20;;;;;;5036442;28;20462;-83
2022/12/29 01:13:38;;;;;;;15.93;8.25;;;102.60;2227.20;;;;;;5028684;28;20030;-82
2022/12/29 01:16:05;;;;;;;18.00;9.38;;;102.60;2227.20;;;;;;5029660;28;20030;-83
2022/12/29 01:18:31;;;;;;;25.60;11.88;;;102.60;2227.20;;;;;;5030147;28;20024;-83
2022/12/29 01:21:00;;;;;;;;;;;102.60;2227.20;;;;;;5030113;28;20124;-83
2022/12/29 01:23:26;;;;;;;20.73;10.93;;;102.60;2227.20;;;;;;5026525;28;19909;-83
2022/12/29 01:25:51;;;;;;;;;;;102.60;2227.20;;;;;;5026968;28;20096;-83
2022/12/29 01:28:17;;;;;;;19.13;9.98;;;102.60;2227.20;;;;;;5063848;28;19927;-83
2022/12/29 01:30:42;;;;;;;;;;;102.60;2227.20;;;;;;5030926;28;20030;-83
2022/12/29 01:33:08;;;;;;;26.90;11.90;;;102.60;2227.20;;;;;;5030996;28;19906;-83
2022/12/29 01:35:34;;;;;;;;;;;102.50;2227.20;;;;;;5030189;28;20025;-83
2022/12/29 01:37:59;;;;;;;23.60;12.05;;;102.50;2227.20;;;;;;5027967;28;19905;-83
2022/12/29 01:40:25;;;;;;;;;;;102.50;2227.20;;;;;;5027374;28;20038;-83
2022/12/29 01:42:51;;;;;;;35.85;14.02;;;102.50;2227.20;;;;;;5058727;28;20017;-84
2022/12/29 01:45:17;;;;;;;;;;;102.50;2227.20;;;;;;5028754;28;20358;-83
2022/12/29 01:47:48;;;;;;;22.53;12.10;;;102.50;2227.20;;;;;;5060224;28;19905;-83
2022/12/29 01:50:26;;;;;;;26.40;12.13;;;102.50;2227.20;;;;;;5025826;28;20021;-81
2022/12/29 01:52:59;;;;;;;21.63;11.23;;;102.40;2227.20;;;;;;5025531;28;20026;-81
2022/12/29 01:55:29;;;;;;;21.92;11.57;;;102.40;2227.20;;;;;;5031016;28;20053;-83
2022/12/29 01:57:58;;;;;;;21.15;11.55;;;102.40;2227.20;;;;;;5024518;28;20045;-81
2022/12/29 02:00:23;;;;;;;26.35;10.02;;;102.40;2227.20;;;;;;5029233;28;20095;-83
2022/12/29 02:02:51;;;;;;;;;;;102.40;2227.20;;;;;;5026739;28;20037;-83
2022/12/29 02:05:48;;;;;;;25.42;10.80;;;102.50;2227.20;;;;;;5061638;28;19912;-82
2022/12/29 02:08:14;;;;;;;21.25;9.32;;;102.50;2227.20;;;;;;5035799;28;20399;-82
2022/12/29 02:10:41;;;;;;;21.33;11.13;;;102.40;2227.20;;;;;;5032446;28;20033;-82
2022/12/29 02:13:07;;;;;;;24.88;12.85;;;102.40;2227.20;;;;;;5028787;28;20022;-82
2022/12/29 02:15:51;;;;;;;;;;;102.40;2227.20;;;;;;5031998;28;20043;-81
2022/12/29 02:18:32;;;;;;;23.33;12.10;;;102.40;2227.20;;;;;;5025417;28;19944;-82
2022/12/29 02:21:19;;;;;;;29.30;14.85;;;102.40;2227.20;;;;;;5024931;28;20041;-82
2022/12/29 02:23:56;;;;;;;22.40;10.88;;;102.40;2227.20;;;;;;5044332;28;20045;-83
2022/12/29 02:26:35;;;;;;;24.48;11.88;;;102.40;2227.20;;;;;;5023887;28;20180;-82
2022/12/29 02:29:23;;;;;;;25.60;12.38;;;102.50;2227.20;;;;;;5024374;28;20017;-82
2022/12/29 02:31:51;;;;;;;27.00;13.73;;;102.50;2227.20;;;;;;5027360;28;20026;-82
2022/12/29 02:34:36;;;;;;;33.08;12.90;;;102.50;2227.20;;;;;;5026696;28;20029;-81
2022/12/29 02:37:31;;;;;;;31.38;13.13;;;102.50;2227.20;;;;;;5022906;28;20033;-82
2022/12/29 02:40:04;;;;;;;24.83;13.00;;;102.50;2227.20;;;;;;5026211;28;20077;-83
2022/12/29 02:42:36;;;;;;;32.10;14.85;;;102.50;2227.20;;;;;;5022875;28;20014;-82
2022/12/29 02:45:28;;;;;;;27.48;13.10;;;102.40;2227.20;;;;;;5023064;28;20482;-81
2022/12/29 02:48:31;;;;;;;28.52;13.65;;;102.50;2227.20;;;;;;5023588;28;20143;-81
2022/12/29 02:51:18;;;;;;;34.40;13.85;;;102.50;2227.20;;;;;;5023576;28;20022;-82
2022/12/29 02:56:29;;;;;;;29.58;14.60;;;102.50;2227.20;;;;;;5015377;28;20044;-82
2022/12/29 02:58:55;;;;;;;;;;;102.50;2227.20;;;;;;5013778;28;20129;-81
2022/12/29 03:01:30;;;;;;;29.55;14.40;;;102.50;2227.20;;;;;;5030408;28;19913;-82
2022/12/29 03:03:58;;;;;;;25.38;12.80;;;102.50;2227.20;;;;;;5030798;28;20036;-82
2022/12/29 03:06:39;;;;;;;26.90;12.93;;;102.50;2227.20;;;;;;5030063;28;20034;-81
2022/12/29 03:09:28;;;;;;;30.95;16.17;;;102.50;2227.20;;;;;;5013590;28;20030;-81
2022/12/29 03:12:09;;;;;;;24.08;12.50;;;102.50;2227.20;;;;;;5013789;28;20591;-82
2022/12/29 03:17:57;;;;;;;30.80;13.18;;;102.50;2227.20;;;;;;5014518;28;20029;-82
2022/12/29 03:20:44;;;;;;;28.50;13.23;;;102.50;2227.20;;;;;;5012882;28;20521;-81
2022/12/29 03:23:12;;;;;;;29.70;14.32;;;102.50;2227.20;;;;;;5013223;28;20112;-80
2022/12/29 03:25:43;;;;;;;25.50;12.57;;;102.50;2227.20;;;;;;5013309;28;20549;-81
2022/12/29 03:28:18;;;;;;;25.60;12.27;;;102.50;2227.20;;;;;;5013132;28;20168;-81
2022/12/29 03:30:45;;;;;;;27.63;14.57;;;102.40;2227.20;;;;;;5013315;28;20033;-80
2022/12/29 03:33:18;;;;;;;25.00;12.68;;;102.40;2227.20;;;;;;5013464;28;20045;-80
2022/12/29 03:35:47;;;;;;;27.60;14.25;;;77.70;2227.20;;;;;;5013765;28;20029;-81
2022/12/29 03:38:37;;;;;;;29.73;16.15;;;77.70;2227.20;;;;;;5013474;28;20034;-81
2022/12/29 03:41:07;;;;;;;30.25;16.17;;;77.70;2227.20;;;;;;5013245;28;20593;-83
2022/12/29 03:43:33;;;;;;;29.05;14.95;;;77.70;2227.20;;;;;;5013295;28;20081;-81
2022/12/29 03:45:59;;;;;;;28.60;14.90;;;77.70;2227.20;;;;;;5013356;28;20025;-82
2022/12/29 03:48:25;;;;;;;;;;;77.70;2227.20;;;;;;5013646;28;20069;-81
2022/12/29 03:50:50;;;;;;;26.70;15.05;;;77.70;2227.20;;;;;;5046005;28;19905;-80
2022/12/29 03:53:16;;;;;;;;;;;77.70;2227.20;;;;;;5013177;28;20113;-80
2022/12/29 03:55:42;;;;;;;27.48;13.50;;;77.70;2227.20;;;;;;5045864;28;20436;-81
2022/12/29 03:58:07;;;;;;;;;;;77.70;2227.20;;;;;;5013360;28;20030;-81
2022/12/29 04:00:33;;;;;;;24.85;12.55;;;102.40;2227.20;;;;;;5045890;28;19952;-81
2022/12/29 04:03:00;;;;;;;;;;;77.70;2227.20;;;;;;5013141;28;20030;-82
2022/12/29 04:05:26;;;;;;;23.40;10.98;;;102.50;2227.20;;;;;;5045742;28;20358;-82
2022/12/29 04:07:52;;;;;;;;;;;102.50;2227.20;;;;;;5013190;28;20030;-81
2022/12/29 04:10:17;;;;;;;29.27;14.77;;;102.50;2227.20;;;;;;5045401;28;19929;-82
2022/12/29 04:12:43;;;;;;;;;;;102.50;2227.20;;;;;;5013329;28;20530;-81
2022/12/29 04:15:09;;;;;;;26.92;14.13;;;102.40;2227.20;;;;;;5029219;28;19954;-81
2022/12/29 04:17:35;;;;;;;28.50;13.82;;;102.40;2227.20;;;;;;5013387;28;20145;-81
2022/12/29 04:22:45;;;;;;;24.27;12.60;;;102.40;2227.20;;;;;;5013828;28;19964;-81
2022/12/29 04:25:10;;;;;;;;;;;102.40;2227.20;;;;;;5013167;28;20072;-80
2022/12/29 04:27:36;;;;;;;27.23;13.80;;;77.70;2227.20;;;;;;5045832;28;20354;-82
2022/12/29 04:30:02;;;;;;;;;;;77.60;2227.20;;;;;;5014218;28;20034;-80
2022/12/29 04:32:28;;;;;;;26.40;12.65;;;77.60;2227.20;;;;;;5049794;28;19905;-81
2022/12/29 04:34:53;;;;;;;;;;;77.70;2227.20;;;;;;5017143;28;20030;-81
2022/12/29 04:37:19;;;;;;;26.40;12.95;;;77.70;2227.20;;;;;;5049648;28;19905;-80
2022/12/29 04:39:44;;;;;;;;;;;77.70;2227.20;;;;;;5016852;28;20044;-81
2022/12/29 04:42:10;;;;;;;26.73;15.65;;;77.70;2227.20;;;;;;5049829;28;19913;-81
2022/12/29 04:44:35;;;;;;;;;;;102.40;2227.20;;;;;;5016866;28;20022;-81
2022/12/29 04:47:01;;;;;;;24.20;12.60;;;102.40;2227.20;;;;;;5049608;28;20258;-82
2022/12/29 04:49:27;;;;;;;;;;;102.40;2227.20;;;;;;5016667;28;20022;-80
2022/12/29 04:51:52;;;;;;;25.42;13.60;;;102.40;2227.20;;;;;;5032625;28;19953;-80
2022/12/29 04:54:18;;;;;;;;;;;102.40;2227.20;;;;;;5016663;28;20045;-81
2022/12/29 04:56:43;;;;;;;23.67;13.10;;;102.40;2227.20;;;;;;5049116;28;20351;-81
2022/12/29 04:59:10;;;;;;;;;;;102.40;2227.20;;;;;;5016705;28;20056;-82
2022/12/29 05:01:36;;;;;;;23.38;11.70;;;102.50;2227.20;;;;;;5049262;28;19996;-82
2022/12/29 05:04:02;;;;;;;;;;;102.50;2227.20;;;;;;5016807;28;20057;-81
2022/12/29 05:06:27;;;;;;;27.73;13.50;;;102.50;2227.20;;;;;;5049024;28;19905;-80
2022/12/29 05:08:53;;;;;;;;;;;102.50;2227.20;;;;;;5016305;28;20033;-81
2022/12/29 05:11:18;;;;;;;31.17;13.95;;;102.50;2227.20;;;;;;5049147;28;19905;-80
2022/12/29 05:13:47;;;;;;;;;;;102.50;2227.20;;;;;;5016863;28;20067;-81
2022/12/29 05:16:13;;;;;;;26.45;14.20;;;102.50;2227.20;;;;;;5049270;28;20436;-82
2022/12/29 05:18:38;;;;;;;;;;;102.40;2227.20;;;;;;5016182;28;20021;-80
2022/12/29 05:21:04;;;;;;;27.95;13.65;;;102.40;2227.20;;;;;;5048961;28;19917;-81
2022/12/29 05:23:30;;;;;;;;;;;102.40;2227.20;;;;;;5016132;28;20026;-82
2022/12/29 05:25:55;;;;;;;26.42;13.70;;;102.40;2227.20;;;;;;5048735;28;19910;-80
2022/12/29 05:28:21;;;;;;;;;;;102.40;2227.20;;;;;;5015999;28;20022;-80
2022/12/29 05:30:51;;;;;;;22.88;14.20;;;77.70;2227.20;;;;;;5016694;28;19905;-82
2022/12/29 05:33:18;;;;;;;24.88;13.43;;;102.40;2227.20;;;;;;5015555;28;20025;-80
2022/12/29 05:35:44;;;;;;;26.38;12.90;;;102.60;2227.20;;;;;;5015613;28;20029;-81
2022/12/29 05:38:10;;;;;;;41.17;17.25;;;102.60;2227.20;;;;;;5015557;28;20117;-80
2022/12/29 05:40:35;;;;;;;;;;;102.50;2227.20;;;;;;5015421;28;20125;-81
2022/12/29 05:43:01;;;;;;;31.98;15.43;;;102.50;2227.20;;;;;;5047335;28;19905;-82
2022/12/29 05:45:27;;;;;;;;;;;102.50;2227.20;;;;;;5016078;28;20076;-81
2022/12/29 05:47:52;;;;;;;23.33;13.10;;;102.50;2227.20;;;;;;5048649;28;19913;-80
2022/12/29 05:50:18;;;;;;;;;;;102.50;2227.20;;;;;;5015737;28;20079;-81
2022/12/29 05:52:45;;;;;;;24.85;12.70;;;102.50;2227.20;;;;;;5048194;28;19913;-80
2022/12/29 05:55:11;;;;;;;25.48;14.05;;;102.40;2227.20;;;;;;5015053;28;20061;-83
2022/12/29 05:57:37;;;;;;;26.13;13.95;;;102.40;2227.20;;;;;;5015021;28;20034;-81
2022/12/29 06:00:04;;;;;;;;;;;102.50;2227.20;;;;;;5015450;28;20436;-81
2022/12/29 06:02:30;;;;;;;25.10;14.13;;;102.50;2227.20;;;;;;5048012;28;19906;-82
2022/12/29 06:04:55;;;;;;;;;;;102.50;2227.20;;;;;;5015369;28;20394;-81
2022/12/29 06:07:21;;;;;;;36.70;15.70;;;102.50;2227.20;;;;;;5048053;28;19905;-81
2022/12/29 06:09:47;;;;;;;;;;;102.40;2227.20;;;;;;5015343;28;20036;-81
2022/12/29 06:12:12;;;;;;;29.35;14.18;;;102.40;2227.20;;;;;;5047983;28;19906;-81
2022/12/29 06:14:38;;;;;;;;;;;102.40;2227.20;;;;;;5015152;28;20026;-81
2022/12/29 06:17:03;;;;;;;33.95;15.25;;;102.50;2227.20;;;;;;5048020;28;19979;-82
2022/12/29 06:19:29;;;;;;;;;;;102.50;2227.20;;;;;;5015022;28;20028;-82
2022/12/29 06:21:55;;;;;;;29.05;15.20;;;102.50;2227.20;;;;;;5047840;28;20028;-82
2022/12/29 06:24:21;;;;;;;;;;;102.50;2227.20;;;;;;5014984;28;20033;-81
2022/12/29 06:26:46;;;;;;;31.17;16.95;;;102.50;2227.20;;;;;;5047574;28;19912;-81
2022/12/29 06:29:16;;;;;;;;;;;102.50;2227.20;;;;;;5016249;28;20411;-81
2022/12/29 06:31:43;;;;;;;27.75;14.70;;;102.50;2227.20;;;;;;5015559;28;20004;-81
2022/12/29 06:34:09;;;;;;;25.25;13.82;;;102.50;2227.20;;;;;;5015042;28;20747;-78
2022/12/29 06:36:34;;;;;;;;;;;102.50;2227.20;;;;;;5019120;28;20084;-78
2022/12/29 06:39:00;;;;;;;27.70;15.48;;;102.50;2227.20;;;;;;5023313;28;20380;-79
2022/12/29 06:41:25;;;;;;;;;;;102.50;2227.20;;;;;;5018975;28;20049;-79
2022/12/29 06:43:51;;;;;;;32.10;15.77;;;102.50;2227.20;;;;;;5057450;28;20004;-84
2022/12/29 06:46:17;;;;;;;;;;;102.60;2227.20;;;;;;5021271;28;20494;-84
2022/12/29 06:48:43;;;;;;;28.83;15.63;;;102.60;2227.20;;;;;;5022591;28;20320;-79
2022/12/29 06:51:08;;;;;;;;;;;102.60;2227.20;;;;;;5026772;28;20029;-80
2022/12/29 06:53:34;;;;;;;28.50;14.50;;;102.60;2227.20;;;;;;5065931;28;19959;-80
2022/12/29 06:55:59;;;;;;;;;;;102.70;2227.20;;;;;;5031749;28;20057;-82
2022/12/29 06:58:25;;;;;;;30.92;15.35;;;102.60;2227.20;;;;;;5026258;28;19959;-80
2022/12/29 07:00:51;;;;;;;;;;;102.70;2227.20;;;;;;5021255;28;20057;-79
2022/12/29 07:03:16;;;;;;;39.53;15.82;;;102.60;2227.20;;;;;;5026248;28;19913;-84
2022/12/29 07:05:42;;;;;;;;;;;102.70;2227.20;;;;;;5023318;28;20025;-81
2022/12/29 07:08:08;;;;;;;36.47;16.00;;;102.60;2227.20;;;;;;5023667;28;19906;-79
2022/12/29 07:10:34;;;;;;;;;;;102.70;2227.20;;;;;;5025823;28;20104;-82
2022/12/29 07:12:59;;;;;;;28.98;15.50;;;102.80;2227.20;;;;;;5022401;28;19948;-79
2022/12/29 07:15:25;;;;;;;;;;;102.80;2227.20;;;;;;5022984;28;20053;-83
2022/12/29 07:17:51;;;;;;;30.27;15.73;;;102.80;2227.20;;;;;;5059921;28;19905;-86
2022/12/29 07:20:17;;;;;;;37.30;18.83;;;102.80;2227.20;;;;;;5021577;28;20033;-82
2022/12/29 07:22:43;;;;;;;;;;;102.90;2227.20;;;;;;5029853;28;20026;-82
2022/12/29 07:25:08;;;;;;;30.65;15.13;;;102.90;2227.20;;;;;;5052607;28;19955;-83
2022/12/29 07:27:34;;;;;;;;;;;102.90;2227.20;;;;;;5027290;28;20033;-83
2022/12/29 07:30:00;;;;;;;29.17;16.05;;;102.90;2227.20;;;;;;5051517;28;19952;-85
2022/12/29 07:32:25;;;;;;;;;;;102.90;2227.20;;;;;;5028979;28;20022;-86
2022/12/29 07:34:51;;;;;;;31.30;16.85;;;102.90;2227.20;;;;;;5027991;28;19905;-85
2022/12/29 07:37:17;;;;;;;;;;;102.90;2227.20;;;;;;5029051;28;20547;-82
2022/12/29 07:39:43;;;;;;;30.65;15.93;;;103.00;2227.20;;;;;;5044037;28;20410;-90
2022/12/29 07:42:08;;;;;;;;;;;102.90;2227.20;;;;;;5024932;28;20111;-81
2022/12/29 07:44:34;;;;;;;32.63;15.10;;;103.00;2227.20;;;;;;5026743;28;19935;-79
2022/12/29 07:46:59;;;;;;;;;;;103.00;2227.20;;;;;;5026478;28;20029;-78
2022/12/29 07:49:25;;;;;;;33.28;16.42;;;103.10;2227.20;;;;;;5017573;28;19905;-82
2022/12/29 07:51:51;;;;;;;;;;;103.20;2227.20;;;;;;5022739;28;20092;-90
2022/12/29 07:54:19;;;;;;;32.95;15.85;;;103.30;2227.20;;;;;;5023354;28;20004;-82
2022/12/29 07:56:45;;;;;;;41.05;19.55;;;103.30;2227.20;;;;;;5023181;28;20072;-85
2022/12/29 07:59:14;;;;;;;40.55;20.83;;;128.00;2252.80;;;;;;5023300;28;20088;-87
2022/12/29 08:01:39;;;;;;;33.20;16.42;;;128.00;2252.80;;;;;;5024920;28;20040;-90
2022/12/29 08:04:05;;;;;;;;;;;128.10;2252.80;;;;;;5017697;28;20025;-87
2022/12/29 08:06:31;;;;;;;31.55;17.63;;;128.20;2252.80;;;;;;5024525;28;19905;-91
2022/12/29 08:08:56;;;;;;;;;;;128.20;2252.80;;;;;;5019460;28;20026;-80
2022/12/29 08:11:22;;;;;;;36.25;17.98;;;128.30;2252.80;;;;;;5029762;28;19913;-89
2022/12/29 08:13:48;;;;;;;;;;;128.30;2252.80;;;;;;5019233;28;20084;-87
2022/12/29 08:16:14;;;;;;;35.90;18.27;;;128.40;2252.80;;;;;;5027483;28;20301;-81
2022/12/29 08:18:39;;;;;;;;;;;128.40;2252.80;;;;;;5022493;28;20030;-84
2022/12/29 08:21:05;;;;;;;41.72;19.77;;;128.70;2252.80;;;;;;5023993;28;20321;-85
2022/12/29 08:23:31;;;;;;;;;;;128.60;2252.80;;;;;;5021550;28;20021;-84
2022/12/29 08:26:02;;;;;;;34.88;17.83;;;128.80;2252.80;;;;;;5026260;28;19913;-87
2022/12/29 08:28:28;;;;;;;37.55;20.63;;;128.80;2252.80;;;;;;5023832;28;20538;-88
2022/12/29 08:30:57;;;;;;;42.00;19.65;;;128.90;2252.80;;;;;;5025341;28;20048;-85
2022/12/29 08:33:23;;;;;;;36.95;20.05;;;153.60;2252.80;;;;;;5025617;28;20113;-79
2022/12/29 08:35:49;;;;;;;;;;;153.60;2252.80;;;;;;5027193;28;20057;-87
2022/12/29 08:38:15;;;;;;;45.28;22.80;;;153.70;2252.80;;;;;;5022037;28;19920;-83
2022/12/29 08:40:40;;;;;;;;;;;153.80;2252.80;;;;;;5025273;28;20040;-86
2022/12/29 08:43:07;;;;;;;43.47;21.70;;;153.90;2252.80;;;;;;5021367;28;19912;-82
2022/12/29 08:45:32;;;;;;;41.67;20.70;;;153.90;2252.80;;;;;;5016545;28;20398;-91
2022/12/29 08:47:58;;;;;;;;;;;154.00;2252.80;;;;;;5026804;28;20026;-83
2022/12/29 08:50:23;;;;;;;40.70;20.00;;;154.10;2252.80;;;;;;5020235;28;19955;-82
2022/12/29 08:52:49;;;;;;;;;;;154.20;2252.80;;;;;;5019604;28;20022;-83
2022/12/29 08:55:15;;;;;;;39.28;20.17;;;154.30;2252.80;;;;;;5026399;28;20007;-86
2022/12/29 08:57:40;;;;;;;;;;;154.40;2252.80;;;;;;5025367;28;20390;-87
2022/12/29 09:00:07;;;;;;;37.28;19.13;;;154.50;2252.80;;;;;;5024523;28;19913;-87
2022/12/29 09:02:32;;;;;;;36.78;19.98;;;179.20;2252.80;;;;;;5019350;28;20049;-88
2022/12/29 09:04:58;;;;;;;;;;;179.40;2252.80;;;;;;5031418;28;20579;-88
2022/12/29 09:07:24;;;;;;;36.47;19.83;;;179.50;2252.80;;;;;;5023642;28;20064;-88
2022/12/29 09:09:50;;;;;;;;;;;179.60;2252.80;;;;;;5026126;28;20103;-85
2022/12/29 09:12:17;;;;;;;40.38;19.15;;;179.70;2252.80;;;;;;5026189;28;19909;-87
2022/12/29 09:14:44;;;;;;;35.75;18.30;;;179.70;2252.80;;;;;;5024926;28;20025;-89
2022/12/29 09:19:55;;;;;;;43.03;20.73;;;179.80;2252.80;;;;;;5031699;28;20132;-88
2022/12/29 09:22:20;;;;;;;;;;;180.00;2252.80;;;;;;5029858;28;20057;-84
2022/12/29 09:24:46;;;;;;;29.98;17.10;;;180.00;2252.80;;;;;;5054670;28;19960;-90
2022/12/29 09:27:11;;;;;;;;;;;180.10;2252.80;;;;;;5021714;28;20077;-82
2022/12/29 09:29:37;;;;;;;33.90;18.77;;;204.80;2252.80;;;;;;5053851;28;19905;-85
2022/12/29 09:32:04;;;;;;;34.25;19.77;;;205.00;2252.80;;;;;;5017804;28;20513;-88
2022/12/29 09:34:29;;;;;;;;;;;205.20;2252.80;;;;;;5031557;28;20029;-89
2022/12/29 09:36:56;;;;;;;38.10;21.42;;;205.40;2252.80;;;;;;5058085;28;20447;-86
2022/12/29 09:39:23;;;;;;;38.45;20.38;;;205.50;2252.80;;;;;;5027194;28;20038;-87
2022/12/29 09:42:19;;;;;;;34.03;18.17;;;205.70;2252.80;;;;;;5022235;28;20037;-88
2022/12/29 09:45:08;;;;;;;35.15;19.05;;;230.40;2252.80;;;;;;5038190;28;20022;-83
2022/12/29 09:47:34;;;;;;;35.05;17.77;;;230.60;2252.80;;;;;;5032765;28;20112;-93
2022/12/29 09:50:09;;;;;;;;;;;230.60;2252.80;;;;;;5026148;28;20075;-90
2022/12/29 09:52:40;;;;;;;36.58;18.98;;;230.90;2252.80;;;;;;5041352;28;19913;-89
2022/12/29 09:55:15;;;;;;;40.42;20.48;;;230.90;2252.80;;;;;;5029723;28;20126;-87
2022/12/29 09:57:41;;;;;;;37.08;20.00;;;231.10;2252.80;;;;;;5032297;28;20033;-89
2022/12/29 10:00:13;;;;;;;39.08;20.70;;;231.20;2252.80;;;;;;5031419;28;20033;-89
2022/12/29 10:02:43;;;;;;;52.40;22.48;;;256.00;2252.80;;;;;;5025292;28;20032;-88
2022/12/29 10:05:29;;;;;;;36.67;21.58;;;256.00;2252.80;;;;;;5020482;28;20082;-91
2022/12/29 10:08:26;;;;;;;35.37;21.00;;;231.20;2252.80;;;;;;5023351;28;20061;-87
2022/12/29 10:11:01;;;;;;;42.50;21.73;;;231.10;2252.80;;;;;;5032007;28;20369;-90
2022/12/29 10:13:30;;;;;;;40.20;21.13;;;231.10;2252.80;;;;;;5020665;28;20030;-86
2022/12/29 10:16:05;;;;;;;39.35;21.02;;;231.20;2252.80;;;;;;5023370;28;20091;-83
2022/12/29 10:18:52;;;;;;;38.73;21.47;;;231.20;2252.80;;;;;;5024747;28;20036;-82
2022/12/29 10:21:59;;;;;;;39.03;23.38;;;256.00;2252.80;;;;;;5025282;28;20050;-81
2022/12/29 10:24:27;;;;;;;33.22;20.08;;;256.70;2252.80;;;;;;5002558;28;20047;-80
2022/12/29 10:26:56;;;;;;;34.08;20.00;;;281.70;2278.40;;;;;;4984200;28;20431;-85
2022/12/29 10:29:32;;;;;;;40.38;21.38;;;281.90;2278.40;;;;;;4992702;28;20466;-82
2022/12/29 10:32:05;;;;;;;37.90;20.67;;;282.00;2278.40;;;;;;5004657;28;20109;-79
2022/12/29 10:34:41;;;;;;;31.30;18.10;;;282.00;2278.40;;;;;;4995057;28;20034;-79
2022/12/29 10:37:33;;;;;;;;;;;282.10;2278.40;;;;;;5003176;28;20026;-79
2022/12/29 10:40:02;;;;;;;35.38;19.75;;;282.20;2278.40;;;;;;4983512;28;19937;-80
2022/12/29 10:42:37;;;;;;;41.28;21.95;;;282.30;2278.40;;;;;;4992401;28;20051;-80
2022/12/29 10:45:04;;;;;;;39.88;20.65;;;282.30;2278.40;;;;;;4994142;28;20026;-80
2022/12/29 10:47:35;;;;;;;36.67;20.75;;;282.20;2278.40;;;;;;5007716;28;20450;-80
2022/12/29 10:50:02;;;;;;;34.50;19.38;;;282.20;2278.40;;;;;;4993613;28;20041;-85
2022/12/29 10:52:30;;;;;;;32.75;19.73;;;282.30;2278.40;;;;;;4989401;28;20030;-85
2022/12/29 10:54:59;;;;;;;35.63;19.83;;;282.50;2278.40;;;;;;4987575;28;20108;-79
2022/12/29 10:57:39;;;;;;;31.65;17.98;;;307.20;2304.00;;;;;;4997960;28;20027;-79
2022/12/29 11:00:20;;;;;;;31.98;18.30;;;307.30;2304.00;;;;;;5003688;28;20048;-79
2022/12/29 11:03:07;;;;;;;37.58;20.40;;;307.20;2304.00;;;;;;5020725;28;20056;-78
2022/12/29 11:06:25;;;;;;;40.08;24.45;;;282.40;2278.40;;;;;;5026253;28;20022;-86
2022/12/29 11:08:58;;;;;;;33.78;20.17;;;282.40;2278.40;;;;;;5018767;28;20030;-79
2022/12/29 11:11:35;;;;;;;33.65;21.52;;;282.30;2278.40;;;;;;5004670;28;20437;-82
2022/12/29 11:14:19;;;;;;;30.15;18.75;;;282.40;2278.40;;;;;;5007687;28;20520;-81
2022/12/29 11:16:55;;;;;;;36.65;19.70;;;307.50;2304.00;;;;;;5001570;28;20418;-80
2022/12/29 11:19:24;;;;;;;34.03;21.67;;;307.90;2304.00;;;;;;5026237;28;20518;-85
2022/12/29 11:21:50;;;;;;;33.45;19.50;;;332.80;2329.60;;;;;;5018170;28;20045;-82
2022/12/29 11:24:23;;;;;;;30.10;19.80;;;332.80;2329.60;;;;;;5019823;28;20037;-79
2022/12/29 11:27:08;;;;;;;36.17;19.92;;;332.90;2329.60;;;;;;5006714;28;20041;-80
2022/12/29 11:29:41;;;;;;;31.30;18.45;;;332.80;2329.60;;;;;;5003530;28;20057;-78
2022/12/29 11:32:25;;;;;;;33.38;19.77;;;333.10;2329.60;;;;;;5011599;28;20061;-78
2022/12/29 11:34:52;;;;;;;35.13;20.27;;;333.20;2329.60;;;;;;5020945;28;20026;-79
2022/12/29 11:37:27;;;;;;;34.10;19.58;;;333.10;2329.60;;;;;;5012671;28;20034;-79
2022/12/29 11:39:56;;;;;;;27.75;17.95;;;333.00;2329.60;;;;;;5014546;28;20064;-79
2022/12/29 11:42:42;;;;;;;34.88;19.92;;;333.00;2329.60;;;;;;5024611;28;20196;-78
2022/12/29 11:45:18;;;;;;;33.83;21.90;;;333.10;2329.60;;;;;;5014837;28;20065;-82
2022/12/29 11:47:47;;;;;;;34.00;18.75;;;332.90;2329.60;;;;;;5027394;28;20022;-78
2022/12/29 11:50:23;;;;;;;34.38;21.95;;;308.10;2304.00;;;;;;5024596;28;20099;-77
2022/12/29 11:52:57;;;;;;;47.47;23.17;;;307.90;2304.00;;;;;;5019135;28;20029;-82
2022/12/29 11:55:26;;;;;;;37.60;21.73;;;307.90;2304.00;;;;;;5022202;28;20076;-78
2022/12/29 11:57:53;;;;;;;38.83;21.70;;;307.80;2304.00;;;;;;5025552;28;20049;-78
2022/12/29 12:00:27;;;;;;;38.65;24.38;;;307.70;2304.00;;;;;;5016409;28;20106;-78
2022/12/29 12:03:00;;;;;;;50.00;25.38;;;307.80;2304.00;;;;;;5038947;28;20096;-79
2022/12/29 12:05:52;;;;;;;42.63;29.20;;;307.80;2304.00;;;;;;5049865;28;20032;-76
2022/12/29 12:08:21;;;;;;;37.33;23.38;;;307.80;2304.00;;;;;;5016377;28;20037;-79
2022/12/29 12:11:04;;;;;;;45.40;28.23;;;307.60;2304.00;;;;;;5038609;28;20029;-80
2022/12/29 12:13:35;;;;;;;42.63;24.25;;;307.60;2304.00;;;;;;5022091;28;20022;-82
2022/12/29 12:16:07;;;;;;;39.70;24.25;;;307.50;2304.00;;;;;;5019399;28;20115;-84
2022/12/29 12:18:42;;;;;;;38.25;24.02;;;307.40;2304.00;;;;;;5026795;28;20025;-87
2022/12/29 12:21:21;;;;;;;36.03;22.15;;;307.30;2304.00;;;;;;5018128;28;20088;-79
2022/12/29 12:24:00;;;;;;;38.67;24.00;;;307.30;2304.00;;;;;;5026866;28;20032;-80
2022/12/29 12:26:32;;;;;;;36.67;23.73;;;307.30;2304.00;;;;;;5025177;28;20100;-79
2022/12/29 12:29:12;;;;;;;39.25;24.38;;;307.30;2304.00;;;;;;5026014;28;20033;-79
2022/12/29 12:32:08;;;;;;;38.55;22.10;;;307.30;2304.00;;;;;;5021526;28;20032;-78
2022/12/29 12:34:39;;;;;;;39.15;24.52;;;307.30;2304.00;;;;;;4998068;28;20037;-82
2022/12/29 12:37:26;;;;;;;39.88;24.35;;;307.30;2304.00;;;;;;5006752;28;20030;-80
2022/12/29 12:40:07;;;;;;;48.80;27.35;;;307.30;2304.00;;;;;;5019816;28;20046;-78
2022/12/29 12:43:08;;;;;;;42.85;25.15;;;307.30;2304.00;;;;;;5023704;28;20048;-78
2022/12/29 12:45:53;;;;;;;45.35;27.38;;;307.20;2304.00;;;;;;5017686;28;20033;-80
2022/12/29 12:48:56;;;;;;;42.25;25.35;;;307.20;2304.00;;;;;;5021325;28;20592;-80
2022/12/29 12:51:47;;;;;;;43.22;27.13;;;307.30;2304.00;;;;;;5003894;28;20030;-79
2022/12/29 12:54:25;;;;;;;42.22;25.10;;;307.30;2304.00;;;;;;5008625;28;20413;-80
2022/12/29 12:57:19;;;;;;;47.55;25.77;;;307.30;2304.00;;;;;;5015444;28;20025;-79
2022/12/29 13:00:04;;;;;;;42.58;26.70;;;307.30;2304.00;;;;;;5018852;28;20030;-79
2022/12/29 13:02:46;;;;;;;42.70;27.50;;;307.30;2304.00;;;;;;5005145;28;20026;-79
2022/12/29 13:05:48;;;;;;;48.65;28.70;;;307.30;2304.00;;;;;;5010934;28;20034;-79
2022/12/29 13:09:08;;;;;;;45.85;28.17;;;307.40;2304.00;;;;;;5031387;28;20030;-80
2022/12/29 13:11:57;;;;;;;46.33;27.35;;;307.40;2304.00;;;;;;4970950;28;20039;-80
2022/12/29 13:14:43;;;;;;;45.35;28.45;;;307.50;2304.00;;;;;;4933823;29;20034;-80
2022/12/29 13:17:24;;;;;;;49.53;28.85;;;307.40;2304.00;;;;;;4931785;29;20543;-78
2022/12/29 13:20:09;;;;;;;53.75;29.65;;;307.40;2304.00;;;;;;4924982;29;20035;-79
2022/12/29 13:22:45;;;;;;;51.85;30.35;;;307.40;2304.00;;;;;;4938261;29;20086;-80